Time;durP1;ratioP1;P1;durP2;ratioP2;P2;SDS_P1;SDS_P2;PMS_P1;PMS_P2;Temp;Humidity;BMP_temperature;BMP_pressure;BME280_temperature;BME280_humidity;BME280_pressure;Samples;Min_cycle;Max_cycle;Signal;HPM_P1;HPM_P2
2021/07/26 00:01:05;;;;;;;3.72;1.80;;;;;;;23.32;61.38;100782.97;5011999;28;20021;-59
2021/07/26 00:03:30;;;;;;;4.10;2.10;;;;;;;23.31;61.40;100781.34;5012428;28;20033;-58
2021/07/26 00:05:58;;;;;;;3.65;1.90;;;;;;;23.27;61.63;100769.34;5012456;28;20275;-60
2021/07/26 00:08:23;;;;;;;3.42;1.67;;;;;;;23.30;61.28;100764.53;5011803;28;20022;-60
2021/07/26 00:10:58;;;;;;;3.00;1.70;;;;;;;23.31;61.55;100760.06;5012704;28;20469;-59
2021/07/26 00:13:23;;;;;;;5.88;2.25;;;;;;;23.29;61.38;100754.06;5012304;28;20022;-59
2021/07/26 00:15:48;;;;;;;3.85;1.95;;;;;;;23.30;61.51;100753.91;5011715;28;20041;-59
2021/07/26 00:18:13;;;;;;;4.05;1.98;;;;;;;23.30;61.41;100750.41;5012223;28;20025;-59
2021/07/26 00:20:41;;;;;;;3.40;1.60;;;;;;;23.28;61.24;100753.22;5012128;28;20030;-58
2021/07/26 00:23:07;;;;;;;3.42;1.73;;;;;;;23.27;61.29;100748.06;5011850;28;20018;-58
2021/07/26 00:25:32;;;;;;;3.13;1.67;;;;;;;23.25;61.32;100745.56;5012127;28;20037;-59
2021/07/26 00:27:57;;;;;;;3.50;1.75;;;;;;;23.27;61.59;100743.56;5011788;28;20359;-58
2021/07/26 00:30:23;;;;;;;5.05;2.03;;;;;;;23.26;61.04;100744.59;5011934;28;20466;-59
2021/07/26 00:32:48;;;;;;;3.43;1.73;;;;;;;23.27;61.10;100742.75;5012070;28;20057;-59
2021/07/26 00:35:13;;;;;;;3.20;1.90;;;;;;;23.26;61.54;100741.13;5011264;28;20192;-59
2021/07/26 00:37:38;;;;;;;4.85;1.90;;;;;;;23.26;61.31;100749.09;5011777;28;20271;-59
2021/07/26 00:40:07;;;;;;;3.50;1.85;;;;;;;23.25;61.46;100745.56;5012218;28;20030;-60
2021/07/26 00:42:33;;;;;;;4.68;1.92;;;;;;;23.25;61.42;100745.56;5011184;28;20421;-60
2021/07/26 00:44:58;;;;;;;4.35;1.80;;;;;;;23.25;61.06;100748.22;5012274;28;20029;-60
2021/07/26 00:47:26;;;;;;;4.00;1.80;;;;;;;23.24;61.06;100741.28;5011890;28;20482;-60
2021/07/26 00:49:52;;;;;;;4.00;1.70;;;;;;;23.24;61.26;100737.75;5011155;28;20375;-59
2021/07/26 00:52:17;;;;;;;3.80;1.77;;;;;;;23.25;61.01;100739.44;5012014;28;20076;-59
2021/07/26 00:54:43;;;;;;;3.50;1.73;;;;;;;23.23;61.34;100736.94;5015572;28;20026;-60
2021/07/26 00:57:09;;;;;;;3.53;1.80;;;;;;;23.23;60.99;100739.59;5015191;28;20030;-60
2021/07/26 00:59:35;;;;;;;4.05;2.08;;;;;;;23.23;61.14;100741.44;5015642;28;20080;-60
2021/07/26 01:02:01;;;;;;;4.70;2.00;;;;;;;23.22;61.28;100732.59;5015722;28;20022;-59
2021/07/26 01:04:27;;;;;;;6.20;2.10;;;;;;;23.22;60.99;100740.56;5014792;28;20053;-59
2021/07/26 01:06:54;;;;;;;3.75;1.83;;;;;;;23.23;61.24;100741.44;5015852;28;20045;-59
2021/07/26 01:09:20;;;;;;;3.25;1.80;;;;;;;23.18;61.04;100732.09;5015523;28;20039;-60
2021/07/26 01:11:46;;;;;;;2.97;1.67;;;;;;;23.22;61.14;100742.41;5015229;28;20496;-59
2021/07/26 01:14:17;;;;;;;3.78;1.90;;;;;;;23.21;61.16;100743.41;5015653;28;20420;-59
2021/07/26 01:16:47;;;;;;;4.03;1.90;;;;;;;23.21;60.78;100740.75;5015576;28;20397;-59
2021/07/26 01:19:12;;;;;;;5.68;1.83;;;;;;;23.21;61.10;100743.41;5015169;28;20022;-60
2021/07/26 01:21:38;;;;;;;3.88;2.00;;;;;;;23.20;61.03;100742.56;5015173;28;20485;-60
2021/07/26 01:24:03;;;;;;;3.35;1.80;;;;;;;23.18;60.63;100745.38;5015569;28;20026;-59
2021/07/26 01:26:29;;;;;;;3.70;1.90;;;;;;;23.20;61.03;100747.88;5014942;28;20022;-60
2021/07/26 01:29:03;;;;;;;3.30;1.80;;;;;;;23.19;61.09;100746.22;5015231;28;20537;-59
2021/07/26 01:31:29;;;;;;;3.70;1.90;;;;;;;23.17;60.65;100746.38;5014356;28;20033;-59
2021/07/26 01:34:01;;;;;;;3.35;1.70;;;;;;;23.18;60.82;100748.03;5015265;28;20056;-58
2021/07/26 01:36:27;;;;;;;3.40;1.80;;;;;;;23.19;60.57;100751.53;5015051;28;20124;-59
2021/07/26 01:38:53;;;;;;;3.95;1.90;;;;;;;23.17;61.12;100748.22;5014556;28;20392;-59
2021/07/26 01:41:26;;;;;;;4.07;1.70;;;;;;;23.18;60.98;100757.84;5014871;28;20441;-59
2021/07/26 01:44:10;;;;;;;3.63;1.92;;;;;;;23.17;60.98;100762.31;5015136;28;20105;-60
2021/07/26 01:46:49;;;;;;;3.75;1.95;;;;;;;23.18;60.59;100752.53;5014269;28;20053;-58
2021/07/26 01:49:29;;;;;;;3.80;2.00;;;;;;;23.17;60.50;100751.69;5014392;28;20037;-59
2021/07/26 01:51:55;;;;;;;3.50;1.80;;;;;;;23.17;60.66;100754.34;5015123;28;20110;-59
2021/07/26 01:54:20;;;;;;;3.35;1.80;;;;;;;23.17;60.85;100757.00;5013906;28;20327;-61
2021/07/26 01:56:46;;;;;;;3.50;1.70;;;;;;;23.13;60.80;100755.69;5014995;28;20021;-59
2021/07/26 01:59:11;;;;;;;3.58;1.90;;;;;;;23.16;60.51;100757.16;5015065;28;20026;-59
2021/07/26 02:01:37;;;;;;;4.22;1.92;;;;;;;23.16;60.44;100758.03;5013999;28;20026;-60
2021/07/26 02:04:02;;;;;;;3.55;1.88;;;;;;;23.16;60.54;100766.00;5014494;28;20088;-59
2021/07/26 02:06:27;;;;;;;4.00;1.70;;;;;;;23.14;60.40;100753.84;5012934;28;20092;-59
2021/07/26 02:08:53;;;;;;;3.70;1.60;;;;;;;23.16;60.34;100762.47;5014558;28;20022;-59
2021/07/26 02:11:22;;;;;;;4.13;1.80;;;;;;;23.14;60.28;100761.81;5014124;28;20347;-59
2021/07/26 02:13:48;;;;;;;3.65;1.90;;;;;;;23.14;60.49;100757.31;5013938;28;20100;-60
2021/07/26 02:16:16;;;;;;;4.00;2.00;;;;;;;23.13;60.57;100761.00;5014376;28;20034;-59
2021/07/26 02:18:42;;;;;;;4.15;2.05;;;;;;;23.14;60.29;100764.47;5014515;28;20069;-58
2021/07/26 02:21:07;;;;;;;4.05;1.80;;;;;;;23.13;60.60;100762.81;5013801;28;20049;-60
2021/07/26 02:23:32;;;;;;;3.60;1.90;;;;;;;23.13;60.36;100766.31;5014211;28;20157;-60
2021/07/26 02:26:00;;;;;;;3.28;1.80;;;;;;;23.13;60.43;100760.13;5014582;28;20833;-58
2021/07/26 02:28:26;;;;;;;4.00;2.08;;;;;;;23.12;60.65;100759.31;5013370;28;20021;-58
2021/07/26 02:30:51;;;;;;;3.73;1.80;;;;;;;23.10;60.46;100758.66;5014340;28;20433;-59
2021/07/26 02:33:16;;;;;;;3.90;1.80;;;;;;;23.11;60.59;100765.63;5013920;28;20286;-59
2021/07/26 02:35:41;;;;;;;4.17;2.10;;;;;;;23.11;60.12;100765.63;5013452;28;20350;-59
2021/07/26 02:38:09;;;;;;;2.95;1.70;;;;;;;23.11;60.24;100760.31;5013950;28;20620;-59
2021/07/26 02:40:35;;;;;;;3.33;1.77;;;;;;;23.10;60.46;100761.31;5013788;28;20034;-59
2021/07/26 02:43:03;;;;;;;3.67;1.87;;;;;;;23.09;60.54;100761.47;5013342;28;20033;-58
2021/07/26 02:45:28;;;;;;;3.15;1.67;;;;;;;23.11;60.35;100767.44;5013596;28;20271;-59
2021/07/26 02:47:54;;;;;;;3.60;1.90;;;;;;;23.11;60.04;100764.78;5013788;28;20029;-58
2021/07/26 02:50:20;;;;;;;3.97;1.80;;;;;;;23.09;60.04;100764.94;5012529;28;20279;-58
2021/07/26 02:52:46;;;;;;;3.75;1.98;;;;;;;23.02;60.51;100758.59;5013714;28;20030;-58
2021/07/26 02:55:12;;;;;;;4.00;2.20;;;;;;;23.09;60.33;100766.78;5013682;28;20033;-59
2021/07/26 02:57:37;;;;;;;3.55;1.92;;;;;;;23.10;60.03;100771.13;5012691;28;20036;-59
2021/07/26 03:00:04;;;;;;;3.55;1.80;;;;;;;23.06;59.94;100773.22;5013552;28;20406;-58
2021/07/26 03:02:30;;;;;;;3.88;1.90;;;;;;;23.08;60.28;100781.91;5013202;28;20458;-58
2021/07/26 03:05:01;;;;;;;3.35;1.73;;;;;;;23.07;60.04;100788.19;5012840;28;20028;-59
2021/07/26 03:07:29;;;;;;;3.40;1.60;;;;;;;23.07;60.29;100785.50;5013513;28;20374;-59
2021/07/26 03:09:55;;;;;;;2.95;1.63;;;;;;;23.08;60.01;100786.38;5012764;28;20034;-59
2021/07/26 03:12:20;;;;;;;4.20;2.10;;;;;;;23.07;60.29;100785.50;5013019;28;20116;-59
2021/07/26 03:14:45;;;;;;;3.87;1.87;;;;;;;23.07;60.29;100784.69;5013027;28;20316;-58
2021/07/26 03:17:10;;;;;;;4.90;1.90;;;;;;;23.07;60.33;100787.34;5012304;28;20292;-60
2021/07/26 03:19:35;;;;;;;3.93;1.80;;;;;;;23.06;60.22;100793.66;5012764;28;20271;-60
2021/07/26 03:22:38;;;;;;;3.73;2.10;;;;;;;23.06;59.93;100786.50;5013362;28;20319;-60
2021/07/26 03:25:04;;;;;;;2.92;1.67;;;;;;;23.03;59.97;100786.00;5012498;28;20038;-60
2021/07/26 03:27:29;;;;;;;3.63;1.88;;;;;;;23.05;59.92;100789.31;5012885;28;20028;-59
2021/07/26 03:29:57;;;;;;;3.67;2.20;;;;;;;23.05;60.09;100792.81;5012964;28;20022;-59
2021/07/26 03:32:22;;;;;;;3.85;1.83;;;;;;;23.04;60.10;100791.16;5011841;28;20274;-60
2021/07/26 03:34:47;;;;;;;4.88;1.60;;;;;;;23.04;59.88;100796.47;5013165;28;20026;-59
2021/07/26 03:37:13;;;;;;;3.70;1.80;;;;;;;23.04;60.02;100796.47;5012844;28;20038;-58
2021/07/26 03:39:38;;;;;;;3.07;1.70;;;;;;;23.03;60.21;100794.78;5012018;28;20279;-59
2021/07/26 03:42:04;;;;;;;3.70;1.92;;;;;;;23.04;59.82;100800.97;5013003;28;20036;-59
2021/07/26 03:44:29;;;;;;;3.58;1.83;;;;;;;23.04;60.20;100808.94;5012657;28;20025;-59
2021/07/26 03:46:58;;;;;;;4.55;2.05;;;;;;;23.04;60.00;100804.44;5011984;28;20036;-59
2021/07/26 03:49:23;;;;;;;3.90;1.80;;;;;;;23.03;59.94;100816.03;5012400;28;20102;-59
2021/07/26 03:51:51;;;;;;;3.70;1.90;;;;;;;23.04;60.18;100808.94;5012120;28;20038;-59
2021/07/26 03:54:17;;;;;;;4.03;1.80;;;;;;;23.04;60.15;100807.09;5012332;28;20335;-58
2021/07/26 03:56:42;;;;;;;2.95;1.58;;;;;;;23.03;60.15;100804.59;5012523;28;20036;-59
2021/07/26 03:59:07;;;;;;;3.10;1.70;;;;;;;23.00;60.03;100811.91;5011815;28;20033;-59
2021/07/26 04:01:33;;;;;;;3.80;1.97;;;;;;;23.03;60.10;100810.72;5012237;28;20421;-59
2021/07/26 04:03:58;;;;;;;3.17;1.50;;;;;;;22.95;59.77;100800.06;5012647;28;20267;-59
2021/07/26 04:06:23;;;;;;;4.47;2.00;;;;;;;23.01;60.08;100810.06;5011709;28;20271;-59
2021/07/26 04:08:50;;;;;;;3.83;2.00;;;;;;;22.98;59.91;100816.53;5012737;28;20363;-59
2021/07/26 04:11:26;;;;;;;4.32;1.80;;;;;;;23.01;59.90;100818.03;5012317;28;20018;-59
2021/07/26 04:13:58;;;;;;;3.70;1.77;;;;;;;23.01;60.05;100826.84;5011746;28;20109;-59
2021/07/26 04:16:23;;;;;;;3.20;1.75;;;;;;;22.99;59.66;100825.34;5012275;28;20297;-60
2021/07/26 04:18:50;;;;;;;3.67;1.80;;;;;;;23.01;59.58;100823.34;5012665;28;20551;-60
2021/07/26 04:21:17;;;;;;;4.47;1.92;;;;;;;23.01;59.66;100832.16;5011384;28;20026;-58
2021/07/26 04:23:42;;;;;;;3.03;1.63;;;;;;;23.00;59.98;100816.38;5012464;28;20100;-59
2021/07/26 04:26:08;;;;;;;3.75;1.83;;;;;;;22.99;59.65;100823.50;5012248;28;20521;-58
2021/07/26 04:28:33;;;;;;;3.70;1.77;;;;;;;23.00;59.63;100824.34;5012844;28;20295;-58
2021/07/26 04:30:58;;;;;;;3.08;1.70;;;;;;;22.96;59.63;100821.16;5016294;28;20013;-59
2021/07/26 04:33:24;;;;;;;3.80;1.90;;;;;;;22.99;59.74;100830.66;5016309;28;20029;-59
2021/07/26 04:35:49;;;;;;;4.15;1.88;;;;;;;22.97;59.66;100824.66;5015690;28;20275;-60
2021/07/26 04:38:14;;;;;;;4.20;1.90;;;;;;;22.99;59.59;100828.00;5015532;28;20497;-59
2021/07/26 04:40:39;;;;;;;4.32;1.85;;;;;;;22.97;59.45;100829.97;5016278;28;20030;-59
2021/07/26 04:43:05;;;;;;;3.40;1.90;;;;;;;22.96;59.50;100818.50;5015452;28;20112;-60
2021/07/26 04:45:30;;;;;;;4.15;2.00;;;;;;;22.98;59.71;100835.13;5015905;28;20026;-59
2021/07/26 04:47:56;;;;;;;3.50;1.80;;;;;;;22.97;59.60;100830.81;5016336;28;20137;-59
2021/07/26 04:50:21;;;;;;;3.60;1.80;;;;;;;22.97;59.95;100838.78;5014860;28;20066;-59
2021/07/26 04:52:46;;;;;;;3.90;1.90;;;;;;;22.96;59.53;100837.13;5016127;28;20116;-59
2021/07/26 04:55:12;;;;;;;3.55;1.73;;;;;;;22.97;59.59;100837.94;5015067;28;20691;-59
2021/07/26 04:57:37;;;;;;;3.25;1.65;;;;;;;22.97;59.86;100848.56;5015426;28;20072;-59
2021/07/26 05:00:04;;;;;;;3.60;2.00;;;;;;;22.98;59.38;100842.28;5015773;28;20064;-59
2021/07/26 05:02:29;;;;;;;4.65;2.30;;;;;;;22.97;59.87;100832.63;5014771;28;20612;-59
2021/07/26 05:04:54;;;;;;;3.30;1.70;;;;;;;22.95;59.41;100842.59;5015960;28;20177;-58
2021/07/26 05:07:20;;;;;;;3.50;1.65;;;;;;;22.94;59.90;100839.09;5015444;28;20763;-59
2021/07/26 05:09:45;;;;;;;3.28;1.75;;;;;;;22.94;59.48;100840.91;5014745;28;20470;-58
2021/07/26 05:12:14;;;;;;;3.75;1.83;;;;;;;22.96;59.57;100841.59;5015468;28;20057;-59
2021/07/26 05:14:45;;;;;;;4.32;2.00;;;;;;;22.96;59.54;100829.13;5015672;28;20053;-59
2021/07/26 05:17:10;;;;;;;3.75;1.75;;;;;;;22.93;59.74;100820.66;5015149;28;20172;-58
2021/07/26 05:19:36;;;;;;;3.33;1.80;;;;;;;22.96;59.56;100823.00;5015432;28;20458;-58
2021/07/26 05:22:02;;;;;;;3.53;1.60;;;;;;;22.96;59.89;100829.13;5015480;28;20033;-58
2021/07/26 05:24:27;;;;;;;3.40;1.70;;;;;;;22.96;59.75;100823.81;5014393;28;20064;-58
2021/07/26 05:27:04;;;;;;;3.23;1.73;;;;;;;22.97;59.87;100837.94;5015143;28;20034;-60
2021/07/26 05:29:32;;;;;;;3.35;1.60;;;;;;;22.98;59.87;100829.81;5015250;28;20288;-59
2021/07/26 05:32:00;;;;;;;3.78;1.60;;;;;;;22.98;59.46;100840.44;5015019;28;20104;-59
2021/07/26 05:34:27;;;;;;;3.30;1.70;;;;;;;22.98;59.88;100834.28;5015296;28;20034;-59
2021/07/26 05:36:52;;;;;;;3.72;1.80;;;;;;;22.97;59.94;100835.28;5015227;28;20107;-59
2021/07/26 05:39:18;;;;;;;3.42;1.70;;;;;;;22.98;59.80;100832.47;5013540;28;20529;-60
2021/07/26 05:41:44;;;;;;;4.45;1.90;;;;;;;22.98;59.54;100842.28;5015338;28;20022;-59
2021/07/26 05:44:10;;;;;;;3.65;1.80;;;;;;;22.98;59.63;100842.28;5015116;28;20030;-60
2021/07/26 05:46:35;;;;;;;3.30;1.70;;;;;;;22.97;59.79;100830.81;5014132;28;20029;-59
2021/07/26 05:49:01;;;;;;;3.40;1.77;;;;;;;22.99;59.53;100844.78;5015020;28;20108;-59
2021/07/26 05:51:26;;;;;;;3.47;1.70;;;;;;;23.00;59.44;100842.94;5013759;28;20061;-58
2021/07/26 05:53:51;;;;;;;2.95;1.58;;;;;;;23.01;59.93;100852.59;5014876;28;20270;-59
2021/07/26 05:56:18;;;;;;;3.60;2.03;;;;;;;23.00;59.50;100858.88;5014721;28;20054;-59
2021/07/26 05:58:49;;;;;;;3.70;1.80;;;;;;;23.00;59.49;100856.22;5014453;28;20771;-59
2021/07/26 06:01:36;;;;;;;3.60;1.77;;;;;;;22.94;59.63;100843.56;5015109;28;20279;-57
2021/07/26 06:04:02;;;;;;;4.85;2.00;;;;;;;23.00;59.86;100851.75;5014855;28;20105;-59
2021/07/26 06:06:28;;;;;;;3.65;2.00;;;;;;;23.00;60.03;100848.25;5014297;28;20026;-59
2021/07/26 06:08:53;;;;;;;4.25;1.95;;;;;;;23.00;60.03;100846.44;5015711;28;20168;-59
2021/07/26 06:11:19;;;;;;;4.45;2.10;;;;;;;23.02;60.62;100840.97;5014804;28;20072;-59
2021/07/26 06:13:44;;;;;;;3.63;1.98;;;;;;;23.04;60.22;100849.63;5014668;28;20462;-58
2021/07/26 06:16:09;;;;;;;2.72;1.50;;;;;;;23.05;60.09;100837.16;5014965;28;20505;-59
2021/07/26 06:18:35;;;;;;;4.15;1.80;;;;;;;23.04;60.42;100838.16;5014161;28;20478;-59
2021/07/26 06:21:07;;;;;;;3.13;1.60;;;;;;;23.05;60.31;100845.13;5013599;28;20033;-59
2021/07/26 06:23:33;;;;;;;3.75;1.95;;;;;;;23.05;60.15;100840.66;5014228;28;20022;-60
2021/07/26 06:25:58;;;;;;;3.83;2.00;;;;;;;23.05;60.26;100837.16;5014421;28;20030;-58
2021/07/26 06:28:24;;;;;;;3.10;1.60;;;;;;;23.07;60.42;100846.66;5013560;28;20026;-59
2021/07/26 06:30:49;;;;;;;4.63;2.10;;;;;;;23.06;60.23;100842.31;5014229;28;20029;-60
2021/07/26 06:33:17;;;;;;;5.00;2.00;;;;;;;23.08;60.21;100845.69;5013857;28;20267;-60
2021/07/26 06:35:43;;;;;;;3.67;1.98;;;;;;;23.09;60.19;100841.22;5013385;28;20294;-59
2021/07/26 06:38:08;;;;;;;4.25;1.77;;;;;;;23.09;60.72;100843.88;5014305;28;20486;-58
2021/07/26 06:40:34;;;;;;;5.03;2.40;;;;;;;23.10;60.62;100838.41;5013513;28;20030;-58
2021/07/26 06:43:00;;;;;;;4.22;1.92;;;;;;;23.11;60.77;100844.53;5013877;28;20275;-59
2021/07/26 06:45:26;;;;;;;4.47;1.88;;;;;;;23.11;60.70;100840.03;5013738;28;20036;-58
2021/07/26 06:47:51;;;;;;;4.25;2.00;;;;;;;23.13;60.75;100840.75;5013023;28;20084;-58
2021/07/26 06:50:20;;;;;;;4.05;1.85;;;;;;;23.14;60.67;100845.03;5013159;28;20042;-58
2021/07/26 06:52:48;;;;;;;3.95;1.90;;;;;;;23.15;60.63;100843.25;5013679;28;20034;-59
2021/07/26 06:55:14;;;;;;;4.00;1.90;;;;;;;23.13;60.64;100835.41;5013225;28;20034;-57
2021/07/26 06:57:39;;;;;;;3.75;1.70;;;;;;;23.18;60.71;100843.75;5013823;28;20025;-58
2021/07/26 07:00:05;;;;;;;4.28;2.10;;;;;;;23.21;60.70;100844.41;5013725;28;20029;-58
2021/07/26 07:02:30;;;;;;;3.35;1.70;;;;;;;23.22;60.29;100838.13;5012613;28;20121;-58
2021/07/26 07:04:59;;;;;;;3.10;1.50;;;;;;;23.23;60.68;100842.44;5013944;28;20038;-59
2021/07/26 07:07:27;;;;;;;3.88;1.95;;;;;;;23.25;60.71;100851.09;5013391;28;20329;-58
2021/07/26 07:09:53;;;;;;;4.75;1.95;;;;;;;23.27;60.44;100849.94;5013298;28;20025;-60
2021/07/26 07:12:21;;;;;;;4.43;2.45;;;;;;;23.29;60.59;100850.63;5013363;28;20242;-57
2021/07/26 07:14:46;;;;;;;4.32;1.83;;;;;;;23.31;60.64;100851.28;5013451;28;20409;-59
2021/07/26 07:17:14;;;;;;;3.35;1.67;;;;;;;23.32;61.01;100854.78;5012544;28;20034;-59
2021/07/26 07:19:45;;;;;;;3.90;2.00;;;;;;;23.34;60.64;100861.63;5013627;28;20030;-59
2021/07/26 07:22:13;;;;;;;3.78;1.80;;;;;;;23.31;61.08;100850.47;5013784;28;20026;-58
2021/07/26 07:24:39;;;;;;;4.38;1.90;;;;;;;23.36;61.03;100867.59;5012294;28;20022;-58
2021/07/26 07:27:05;;;;;;;3.60;1.90;;;;;;;23.40;60.63;100865.47;5013123;28;20033;-60
2021/07/26 07:29:30;;;;;;;5.20;2.10;;;;;;;23.43;61.14;100867.81;5012980;28;20025;-60
2021/07/26 07:32:04;;;;;;;3.85;1.88;;;;;;;23.46;60.75;100864.81;5012859;28;20275;-60
2021/07/26 07:34:30;;;;;;;3.63;2.00;;;;;;;23.46;60.63;100859.50;5013036;28;20068;-60
2021/07/26 07:37:00;;;;;;;3.80;1.90;;;;;;;23.47;61.09;100863.00;5012504;28;20425;-59
2021/07/26 07:39:25;;;;;;;3.78;1.60;;;;;;;23.45;61.05;100867.63;5012968;28;20026;-60
2021/07/26 07:41:51;;;;;;;4.28;1.88;;;;;;;23.38;60.90;100859.47;5013185;28;20030;-59
2021/07/26 07:44:17;;;;;;;4.70;2.05;;;;;;;23.42;60.47;100868.81;5011845;28;20025;-60
2021/07/26 07:46:42;;;;;;;3.70;1.80;;;;;;;23.40;60.68;100868.13;5013165;28;20029;-62
2021/07/26 07:49:08;;;;;;;4.25;1.90;;;;;;;23.44;60.78;100874.78;5013094;28;20022;-62
2021/07/26 07:51:33;;;;;;;4.32;1.77;;;;;;;23.44;61.03;100871.31;5011973;28;20164;-61
2021/07/26 07:54:00;;;;;;;4.03;1.83;;;;;;;23.41;60.85;100859.16;5012976;28;20061;-61
2021/07/26 07:56:26;;;;;;;4.40;1.80;;;;;;;23.45;60.79;100859.66;5012473;28;20034;-61
2021/07/26 07:58:59;;;;;;;3.55;1.73;;;;;;;23.50;61.14;100876.81;5011868;28;20030;-61
2021/07/26 08:01:31;;;;;;;3.45;1.73;;;;;;;23.52;61.07;100869.50;5012564;28;20030;-60
2021/07/26 08:03:56;;;;;;;4.13;1.90;;;;;;;23.51;60.66;100878.50;5011957;28;20029;-59
2021/07/26 08:06:21;;;;;;;5.28;1.85;;;;;;;23.53;60.59;100870.34;5011629;28;20048;-60
2021/07/26 08:08:47;;;;;;;4.50;1.60;;;;;;;23.51;60.88;100875.81;5012481;28;20038;-62
2021/07/26 08:11:13;;;;;;;3.65;1.75;;;;;;;23.54;60.93;100883.50;5011959;28;20809;-61
2021/07/26 08:13:39;;;;;;;3.80;1.63;;;;;;;23.53;60.89;100881.00;5010741;28;20025;-60
2021/07/26 08:16:05;;;;;;;3.47;1.70;;;;;;;23.52;60.93;100881.97;5011707;28;20050;-61
2021/07/26 08:18:33;;;;;;;3.33;1.73;;;;;;;23.51;60.88;100882.94;5012055;28;20056;-59
2021/07/26 08:20:59;;;;;;;3.22;1.70;;;;;;;23.50;60.47;100887.44;5010383;28;20025;-60
2021/07/26 08:23:25;;;;;;;2.90;1.52;;;;;;;23.50;60.76;100889.28;5012072;28;20118;-60
2021/07/26 08:25:50;;;;;;;2.97;1.58;;;;;;;23.48;60.79;100883.28;5012241;28;20484;-59
2021/07/26 08:28:16;;;;;;;3.75;1.58;;;;;;;23.48;60.76;100891.25;5011245;28;20041;-61
2021/07/26 08:30:43;;;;;;;3.83;1.63;;;;;;;23.46;60.79;100888.75;5012326;28;20018;-63
2021/07/26 08:33:09;;;;;;;3.38;1.67;;;;;;;23.47;60.88;100882.44;5011602;28;20084;-62
2021/07/26 08:35:35;;;;;;;4.32;1.65;;;;;;;23.48;60.88;100884.13;5011725;28;20034;-60
2021/07/26 08:38:00;;;;;;;3.15;1.60;;;;;;;23.47;60.52;100887.75;5012297;28;20160;-60
2021/07/26 08:40:27;;;;;;;3.60;1.80;;;;;;;23.48;60.36;100888.59;5011126;28;20480;-60
2021/07/26 08:42:53;;;;;;;4.90;1.90;;;;;;;23.46;60.65;100891.41;5012416;28;20157;-59
2021/07/26 08:45:19;;;;;;;4.65;1.77;;;;;;;23.46;60.35;100893.25;5012042;28;20038;-60
2021/07/26 08:47:45;;;;;;;3.22;1.60;;;;;;;23.44;60.45;100892.56;5011330;28;20091;-60
2021/07/26 08:50:17;;;;;;;4.00;1.50;;;;;;;23.45;60.60;100899.53;5011910;28;20049;-61
2021/07/26 08:52:47;;;;;;;3.70;2.00;;;;;;;23.46;60.63;100890.59;5012103;28;20045;-60
2021/07/26 08:55:15;;;;;;;3.30;1.50;;;;;;;23.46;60.59;100888.75;5011175;28;20045;-59
2021/07/26 08:57:43;;;;;;;3.70;1.60;;;;;;;23.48;60.61;100889.44;5012320;28;20033;-59
2021/07/26 09:00:10;;;;;;;2.88;1.52;;;;;;;23.47;60.42;100893.09;5012869;28;20104;-62
2021/07/26 09:02:35;;;;;;;3.58;1.60;;;;;;;23.48;60.21;100897.41;5009955;28;20068;-60
2021/07/26 09:05:01;;;;;;;3.47;1.75;;;;;;;23.50;60.45;100902.59;5013842;28;20022;-60
2021/07/26 09:07:26;;;;;;;4.03;1.67;;;;;;;23.48;60.53;100900.09;5013432;28;20036;-60
2021/07/26 09:09:52;;;;;;;3.63;1.80;;;;;;;23.50;60.22;100900.75;5012326;28;20034;-62
2021/07/26 09:12:34;;;;;;;3.75;1.73;;;;;;;23.53;60.64;100907.59;5014321;28;20061;-59
2021/07/26 09:15:04;;;;;;;2.90;1.60;;;;;;;23.55;60.62;100905.59;5016783;28;20057;-60
2021/07/26 09:17:41;;;;;;;3.40;1.90;;;;;;;23.58;60.30;100905.28;5018131;28;20036;-59
2021/07/26 09:20:11;;;;;;;3.88;1.70;;;;;;;23.60;60.48;100905.94;5019005;28;20157;-59
2021/07/26 09:22:41;;;;;;;4.10;1.85;;;;;;;23.61;60.18;100896.97;5018257;28;20104;-58
2021/07/26 09:25:14;;;;;;;3.58;1.73;;;;;;;23.61;60.27;100894.31;5018267;28;20022;-59
2021/07/26 09:27:58;;;;;;;3.77;1.40;;;;;;;23.61;60.10;100901.47;5016095;28;20033;-58
2021/07/26 09:30:24;;;;;;;4.13;1.93;;;;;;;23.60;60.35;100899.78;5014836;28;20355;-59
2021/07/26 09:32:50;;;;;;;3.85;1.42;;;;;;;23.62;60.45;100895.13;5015887;28;20026;-65
2021/07/26 09:35:16;;;;;;;2.92;1.70;;;;;;;23.57;60.30;100895.63;5015604;28;20102;-62
2021/07/26 09:37:41;;;;;;;3.28;1.65;;;;;;;23.54;60.44;100885.28;5015015;28;20109;-61
2021/07/26 09:40:23;;;;;;;3.70;1.70;;;;;;;23.62;59.96;100911.94;5016545;28;20022;-63
2021/07/26 09:42:50;;;;;;;3.33;1.70;;;;;;;23.61;59.95;100906.78;5015675;28;20033;-63
2021/07/26 09:45:23;;;;;;;3.38;1.90;;;;;;;23.58;60.21;100910.59;5014775;28;20133;-62
2021/07/26 09:48:05;;;;;;;3.27;1.60;;;;;;;23.53;60.05;100900.44;5015603;28;20532;-64
2021/07/26 09:50:35;;;;;;;3.75;1.60;;;;;;;23.54;60.33;100902.09;5013550;28;20294;-63
2021/07/26 09:53:07;;;;;;;5.20;1.80;;;;;;;23.51;60.44;100901.56;5015967;28;20152;-64
2021/07/26 09:55:33;;;;;;;3.97;1.85;;;;;;;23.50;60.02;100907.91;5015551;28;20018;-64
2021/07/26 09:58:03;;;;;;;3.63;1.95;;;;;;;23.46;60.18;100907.38;5014815;28;20058;-61
2021/07/26 10:00:29;;;;;;;3.80;1.92;;;;;;;23.46;60.18;100912.69;5015387;28;20104;-63
2021/07/26 10:02:55;;;;;;;3.90;2.10;;;;;;;23.45;60.68;100928.78;5015670;28;20458;-64
2021/07/26 10:05:23;;;;;;;5.50;2.10;;;;;;;23.44;60.70;100930.63;5014619;28;20033;-65
2021/07/26 10:07:51;;;;;;;5.15;2.20;;;;;;;23.43;60.77;100925.47;5015592;28;20033;-65
2021/07/26 10:10:17;;;;;;;3.90;2.10;;;;;;;23.43;60.33;100931.66;5014371;28;20452;-62
2021/07/26 10:12:49;;;;;;;3.90;2.10;;;;;;;23.42;60.36;100926.47;5014546;28;20474;-64
2021/07/26 10:15:15;;;;;;;3.95;1.90;;;;;;;23.39;60.63;100924.97;5015307;28;20054;-63
2021/07/26 10:17:41;;;;;;;4.63;1.90;;;;;;;23.45;60.55;100926.13;5015228;28;20362;-63
2021/07/26 10:20:08;;;;;;;4.25;2.00;;;;;;;23.44;60.96;100925.31;5014590;28;20104;-64
2021/07/26 10:22:34;;;;;;;4.20;1.90;;;;;;;23.45;60.65;100924.34;5014719;28;20065;-62
2021/07/26 10:25:07;;;;;;;4.32;1.83;;;;;;;23.46;60.62;100927.81;5015114;28;20033;-64
2021/07/26 10:27:36;;;;;;;4.13;2.00;;;;;;;23.48;60.82;100923.16;5013643;28;20049;-63
2021/07/26 10:30:04;;;;;;;5.38;2.13;;;;;;;23.48;60.71;100913.38;5015147;28;20039;-64
2021/07/26 10:32:30;;;;;;;4.40;2.20;;;;;;;23.49;60.77;100916.88;5014749;28;20022;-63
2021/07/26 10:35:00;;;;;;;4.40;2.00;;;;;;;23.48;60.42;100913.38;5013993;28;20474;-60
2021/07/26 10:37:37;;;;;;;4.18;2.20;;;;;;;23.49;60.61;100927.50;5015115;28;20322;-62
2021/07/26 10:40:21;;;;;;;4.75;2.03;;;;;;;23.50;60.94;100919.38;5014843;28;20483;-63
2021/07/26 10:42:47;;;;;;;;;;;;;;;23.54;60.41;100922.53;5015083;28;20437;-61
2021/07/26 10:45:31;;;;;;;3.03;1.73;;;;;;;23.53;60.89;100919.06;5014534;28;20377;-60
2021/07/26 10:48:21;;;;;;;4.78;2.15;;;;;;;23.54;60.61;100918.06;5013748;28;20057;-60
2021/07/26 10:50:51;;;;;;;5.18;2.08;;;;;;;23.53;61.19;100919.06;5014589;28;20057;-59
2021/07/26 10:53:37;;;;;;;4.28;1.98;;;;;;;23.54;60.99;100926.03;5014365;28;20022;-60
2021/07/26 10:56:09;;;;;;;3.65;2.00;;;;;;;23.53;61.06;100929.69;5002422;28;20145;-60
2021/07/26 10:58:37;;;;;;;4.32;2.03;;;;;;;23.54;61.23;100931.38;5014024;28;20045;-60
2021/07/26 11:01:25;;;;;;;3.95;2.08;;;;;;;23.55;60.65;100925.03;5013174;28;20068;-60
2021/07/26 11:03:55;;;;;;;5.60;2.20;;;;;;;23.55;61.04;100925.03;5014410;28;20057;-62
2021/07/26 11:06:56;;;;;;;4.20;2.15;;;;;;;23.59;60.55;100922.91;5013336;28;20493;-61
2021/07/26 11:09:21;;;;;;;4.63;2.13;;;;;;;23.62;60.59;100921.75;5002197;28;20037;-62
2021/07/26 11:11:53;;;;;;;3.47;2.10;;;;;;;23.64;60.90;100922.41;5013978;28;20017;-61
2021/07/26 11:14:19;;;;;;;5.13;2.17;;;;;;;23.63;60.57;100915.44;5013675;28;20048;-60
2021/07/26 11:16:58;;;;;;;5.65;2.05;;;;;;;23.66;60.61;100918.59;5012628;28;20474;-60
2021/07/26 11:19:43;;;;;;;4.40;2.08;;;;;;;23.69;60.41;100912.16;5013454;28;20053;-60
2021/07/26 11:22:15;;;;;;;3.88;2.17;;;;;;;23.67;60.66;100912.31;5012614;28;20022;-59
2021/07/26 11:24:40;;;;;;;3.92;1.90;;;;;;;23.66;60.39;100915.94;5013333;28;20084;-60
2021/07/26 11:27:06;;;;;;;3.87;1.97;;;;;;;23.61;60.07;100909.47;5013630;28;20100;-60